Time;durP1;ratioP1;P1;durP2;ratioP2;P2;SDS_P1;SDS_P2;PMS_P1;PMS_P2;Temp;Humidity;BMP_temperature;BMP_pressure;BME280_temperature;BME280_humidity;BME280_pressure;Samples;Min_cycle;Max_cycle;Signal;HPM_P1;HPM_P2
2023/04/29 00:01:07;;;;;;;43.53;26.55;;;11.90;99.90;;;;;;5017057;28;20097;-68
2023/04/29 00:03:33;;;;;;;45.38;25.20;;;11.60;99.90;;;;;;5006402;28;20385;-67
2023/04/29 00:05:59;;;;;;;43.97;27.13;;;11.40;99.90;;;;;;5009373;28;20044;-68
2023/04/29 00:08:26;;;;;;;38.03;24.35;;;11.30;99.90;;;;;;5005751;28;20120;-68
2023/04/29 00:10:51;;;;;;;42.25;26.33;;;11.30;99.90;;;;;;5029153;28;20481;-68
2023/04/29 00:13:17;;;;;;;46.03;26.77;;;11.60;99.90;;;;;;5020110;28;20042;-67
2023/04/29 00:15:43;;;;;;;48.10;25.40;;;11.60;99.90;;;;;;5010476;28;20121;-67
2023/04/29 00:18:09;;;;;;;52.28;27.08;;;11.10;99.90;;;;;;5012453;28;20052;-67
2023/04/29 00:20:36;;;;;;;44.47;26.75;;;11.40;99.90;;;;;;5009096;28;20042;-67
2023/04/29 00:23:02;;;;;;;50.65;28.40;;;11.50;99.90;;;;;;5014538;28;20045;-68
2023/04/29 00:25:27;;;;;;;45.53;26.73;;;11.50;99.90;;;;;;5030301;28;20052;-68
2023/04/29 00:27:53;;;;;;;52.58;31.63;;;11.30;99.90;;;;;;5018825;28;20056;-67
2023/04/29 00:30:19;;;;;;;45.38;30.17;;;11.20;99.90;;;;;;5013254;28;20040;-67
2023/04/29 00:32:45;;;;;;;55.80;29.85;;;11.60;99.90;;;;;;5019509;28;20037;-67
2023/04/29 00:35:11;;;;;;;53.40;32.00;;;11.30;99.90;;;;;;5025719;28;20049;-68
2023/04/29 00:37:36;;;;;;;52.33;31.60;;;11.80;99.90;;;;;;5020044;28;20050;-67
2023/04/29 00:40:03;;;;;;;57.72;29.95;;;11.70;99.90;;;;;;5022633;28;20502;-67
2023/04/29 00:42:32;;;;;;;48.08;28.55;;;11.90;99.90;;;;;;5028786;28;20450;-68
2023/04/29 00:44:57;;;;;;;46.88;27.58;;;11.60;99.90;;;;;;5016045;28;20050;-68
2023/04/29 00:47:23;;;;;;;49.15;30.02;;;11.80;99.90;;;;;;5025653;28;20117;-67
2023/04/29 00:49:48;;;;;;;45.30;26.70;;;11.60;99.90;;;;;;5019285;28;20042;-67
2023/04/29 00:52:15;;;;;;;46.22;27.27;;;12.00;99.90;;;;;;5028592;28;20069;-68
2023/04/29 00:54:41;;;;;;;48.92;28.45;;;12.10;99.90;;;;;;5016114;28;20049;-67
2023/04/29 00:57:07;;;;;;;47.92;29.02;;;12.00;99.90;;;;;;5011819;28;20546;-67
2023/04/29 00:59:33;;;;;;;52.95;30.10;;;11.90;99.90;;;;;;4993882;28;20073;-67
2023/04/29 01:02:03;;;;;;;48.08;29.88;;;12.10;99.90;;;;;;5028016;28;20048;-67
2023/04/29 01:04:29;;;;;;;51.17;27.60;;;11.80;99.90;;;;;;5019133;28;20527;-68
2023/04/29 01:07:16;;;;;;;47.15;28.52;;;11.90;99.90;;;;;;5017214;28;20045;-68
2023/04/29 01:10:02;;;;;;;48.28;28.85;;;12.10;99.90;;;;;;5027835;28;20135;-68
2023/04/29 01:12:41;;;;;;;59.10;32.60;;;11.70;99.90;;;;;;5027335;28;20041;-68
2023/04/29 01:15:10;;;;;;;56.70;34.13;;;12.20;99.90;;;;;;5008729;28;20085;-68
2023/04/29 01:17:41;;;;;;;60.05;36.67;;;12.00;99.90;;;;;;5013401;28;20100;-68
2023/04/29 01:20:09;;;;;;;46.97;33.83;;;11.90;99.90;;;;;;5021904;28;20553;-67
2023/04/29 01:22:36;;;;;;;57.17;33.13;;;11.80;99.90;;;;;;5029728;28;20444;-67
2023/04/29 01:25:01;;;;;;;44.97;29.27;;;12.20;99.90;;;;;;5029469;28;20045;-67
2023/04/29 01:27:51;;;;;;;53.65;30.30;;;11.80;99.90;;;;;;5028669;28;20069;-67
2023/04/29 01:30:49;;;;;;;49.67;27.58;;;11.80;99.90;;;;;;5025414;28;20057;-67
2023/04/29 01:33:47;;;;;;;40.35;25.20;;;11.80;99.90;;;;;;5030351;28;20519;-68
2023/04/29 01:36:40;;;;;;;39.30;25.85;;;12.00;99.90;;;;;;5013734;28;20049;-68
2023/04/29 01:39:32;;;;;;;46.10;27.65;;;12.00;99.90;;;;;;5013191;28;20034;-67
2023/04/29 01:42:17;;;;;;;42.10;27.52;;;11.90;99.90;;;;;;5021748;28;20049;-68
2023/04/29 01:44:45;;;;;;;47.72;29.60;;;11.90;99.90;;;;;;5032899;28;20043;-67
2023/04/29 01:47:12;;;;;;;51.55;29.02;;;12.20;99.90;;;;;;5020378;28;20050;-68
2023/04/29 01:49:38;;;;;;;46.70;28.73;;;11.90;99.90;;;;;;5012734;28;20191;-68
2023/04/29 01:52:04;;;;;;;45.47;28.40;;;12.20;99.90;;;;;;5013284;28;20085;-68
2023/04/29 01:54:30;;;;;;;43.20;28.13;;;11.90;99.90;;;;;;5028475;28;20095;-68
2023/04/29 01:56:57;;;;;;;46.85;31.02;;;11.90;99.90;;;;;;5012780;28;20117;-68
2023/04/29 01:59:23;;;;;;;46.97;28.17;;;12.10;99.90;;;;;;5023829;28;20076;-68
2023/04/29 02:01:49;;;;;;;42.30;29.15;;;12.20;99.90;;;;;;5013572;28;20077;-67
2023/04/29 02:04:15;;;;;;;50.78;29.10;;;12.00;99.90;;;;;;5032307;28;20038;-68
2023/04/29 02:06:41;;;;;;;55.92;29.30;;;11.70;99.90;;;;;;5016898;28;20037;-68
2023/04/29 02:09:07;;;;;;;45.28;28.23;;;11.80;99.90;;;;;;5012950;28;20176;-68
2023/04/29 02:11:32;;;;;;;49.25;26.67;;;12.80;99.90;;;;;;5013795;28;20488;-68
2023/04/29 02:13:58;;;;;;;42.40;26.13;;;11.80;99.90;;;;;;5011827;28;20380;-68
2023/04/29 02:16:23;;;;;;;48.58;29.10;;;12.10;99.90;;;;;;5021811;28;20124;-67
2023/04/29 02:18:49;;;;;;;47.00;29.15;;;12.00;99.90;;;;;;5027776;28;20072;-68
2023/04/29 02:21:15;;;;;;;45.65;27.90;;;12.10;99.90;;;;;;5030454;28;20060;-68
2023/04/29 02:23:40;;;;;;;45.78;28.30;;;11.80;99.90;;;;;;5027554;28;20042;-67
2023/04/29 02:26:08;;;;;;;47.47;27.85;;;11.80;99.90;;;;;;5011165;28;20037;-67
2023/04/29 02:28:34;;;;;;;47.35;27.25;;;12.10;99.90;;;;;;5012519;28;20049;-67
2023/04/29 02:30:59;;;;;;;40.97;25.30;;;11.90;99.90;;;;;;5013622;28;20519;-67
2023/04/29 02:33:25;;;;;;;37.78;23.70;;;12.00;99.90;;;;;;5024098;28;20041;-67
2023/04/29 02:35:50;;;;;;;51.30;26.17;;;12.10;99.90;;;;;;5030793;28;20034;-68
2023/04/29 02:38:16;;;;;;;50.75;26.52;;;12.20;99.90;;;;;;5023770;28;20037;-67
2023/04/29 02:40:46;;;;;;;48.38;26.48;;;12.10;99.90;;;;;;5017459;28;20095;-68
2023/04/29 02:43:11;;;;;;;50.53;29.88;;;12.50;99.90;;;;;;5009722;28;20164;-67
2023/04/29 02:45:38;;;;;;;50.58;30.08;;;12.20;99.90;;;;;;5013139;28;20042;-67
2023/04/29 02:48:04;;;;;;;58.13;30.30;;;11.90;99.90;;;;;;5011622;28;20045;-67
2023/04/29 02:50:30;;;;;;;51.42;28.35;;;11.90;99.90;;;;;;5010659;28;20060;-67
2023/04/29 02:52:56;;;;;;;55.15;27.80;;;11.90;99.90;;;;;;5012179;28;20046;-67
2023/04/29 02:55:22;;;;;;;50.45;27.95;;;11.90;99.90;;;;;;5018834;28;20049;-67
2023/04/29 02:57:47;;;;;;;51.28;29.90;;;12.00;99.90;;;;;;5022570;28;20042;-67
2023/04/29 03:00:13;;;;;;;61.65;30.70;;;12.30;99.90;;;;;;5022476;28;20034;-67
2023/04/29 03:02:39;;;;;;;46.65;26.40;;;12.20;99.90;;;;;;5028451;28;20578;-68
2023/04/29 03:05:05;;;;;;;57.92;27.65;;;12.00;99.90;;;;;;5014214;28;20045;-68
2023/04/29 03:07:31;;;;;;;46.85;28.00;;;12.20;99.90;;;;;;5012301;28;20049;-67
2023/04/29 03:09:57;;;;;;;49.92;27.73;;;11.90;99.90;;;;;;5010498;28;20472;-68
2023/04/29 03:12:22;;;;;;;43.97;24.45;;;12.10;99.90;;;;;;5020798;28;20255;-67
2023/04/29 03:14:48;;;;;;;44.00;23.20;;;12.20;99.90;;;;;;5018414;28;20467;-68
2023/04/29 03:17:14;;;;;;;41.78;23.35;;;12.20;99.90;;;;;;5010868;28;20060;-68
2023/04/29 03:19:39;;;;;;;43.20;23.05;;;12.10;99.90;;;;;;4994093;28;20045;-68
2023/04/29 03:22:07;;;;;;;41.83;21.92;;;11.90;99.90;;;;;;5011483;28;20042;-67
2023/04/29 03:24:32;;;;;;;41.38;21.23;;;11.90;99.90;;;;;;5012761;28;20081;-67
2023/04/29 03:27:01;;;;;;;35.58;20.25;;;11.90;99.90;;;;;;5023252;28;20537;-68
2023/04/29 03:29:27;;;;;;;35.83;19.42;;;12.10;99.90;;;;;;5030265;28;20053;-68
2023/04/29 03:31:53;;;;;;;37.80;17.67;;;11.80;99.90;;;;;;5024509;28;20381;-67
2023/04/29 03:34:19;;;;;;;29.00;18.88;;;11.90;99.90;;;;;;5017323;28;20041;-68
2023/04/29 03:36:44;;;;;;;36.70;20.73;;;12.10;99.90;;;;;;5024440;28;20030;-68
2023/04/29 03:39:13;;;;;;;30.10;19.27;;;12.10;99.90;;;;;;5011251;28;20068;-67
2023/04/29 03:41:38;;;;;;;33.08;19.35;;;12.40;99.90;;;;;;5012093;28;20594;-67
2023/04/29 03:44:04;;;;;;;34.65;20.33;;;11.70;99.90;;;;;;5025651;28;20034;-67
2023/04/29 03:46:30;;;;;;;35.38;19.70;;;11.80;99.90;;;;;;5012141;28;20033;-67
2023/04/29 03:48:56;;;;;;;37.80;19.48;;;11.70;99.90;;;;;;5029728;28;20574;-67
2023/04/29 03:51:23;;;;;;;29.63;18.55;;;11.70;99.90;;;;;;5016303;28;20115;-67
2023/04/29 03:53:50;;;;;;;30.95;18.73;;;11.70;99.90;;;;;;5009591;28;20053;-67
2023/04/29 03:56:16;;;;;;;34.63;18.80;;;11.80;99.90;;;;;;5017518;28;20112;-68
2023/04/29 03:58:41;;;;;;;31.00;18.17;;;11.70;99.90;;;;;;5014880;28;20112;-67
2023/04/29 04:01:07;;;;;;;28.20;17.77;;;11.50;99.90;;;;;;5028183;28;20099;-67
2023/04/29 04:03:33;;;;;;;35.78;19.02;;;11.50;99.90;;;;;;5028573;28;20045;-67
2023/04/29 04:05:59;;;;;;;31.15;18.98;;;11.50;99.90;;;;;;5030211;28;20045;-67
2023/04/29 04:08:25;;;;;;;39.00;19.70;;;11.50;99.90;;;;;;5024015;28;20048;-67
2023/04/29 04:10:50;;;;;;;31.42;18.55;;;11.70;99.90;;;;;;5030134;28;20574;-67
2023/04/29 04:13:16;;;;;;;37.38;19.80;;;11.50;99.90;;;;;;5030324;28;20561;-67
2023/04/29 04:15:41;;;;;;;27.52;18.60;;;11.70;99.90;;;;;;5029180;28;20388;-67
2023/04/29 04:18:07;;;;;;;35.67;19.42;;;11.40;99.90;;;;;;5020659;28;20052;-67
2023/04/29 04:20:36;;;;;;;31.27;17.95;;;11.60;99.90;;;;;;5018135;28;20046;-67
2023/04/29 04:23:02;;;;;;;34.55;15.98;;;11.60;99.90;;;;;;5030356;28;20131;-67
2023/04/29 04:25:28;;;;;;;37.20;17.48;;;11.40;99.90;;;;;;5025056;28;20136;-67
2023/04/29 04:27:53;;;;;;;34.08;18.92;;;11.50;99.90;;;;;;5020002;28;20053;-67
2023/04/29 04:30:19;;;;;;;37.13;18.27;;;11.30;99.90;;;;;;5011368;28;20519;-68
2023/04/29 04:32:45;;;;;;;41.05;19.27;;;11.40;99.90;;;;;;4999855;28;20042;-68
2023/04/29 04:35:11;;;;;;;31.13;16.95;;;11.50;99.90;;;;;;5010373;28;20042;-67
2023/04/29 04:37:37;;;;;;;33.00;15.52;;;11.30;99.90;;;;;;5008987;28;20128;-67
2023/04/29 04:40:03;;;;;;;36.65;16.02;;;11.30;99.90;;;;;;5010370;28;20140;-67
2023/04/29 04:42:29;;;;;;;33.42;15.98;;;11.50;99.90;;;;;;5008985;28;20065;-67
2023/04/29 04:44:54;;;;;;;29.73;14.07;;;11.50;99.90;;;;;;5009309;28;20124;-67
2023/04/29 04:47:20;;;;;;;26.17;14.23;;;11.30;99.90;;;;;;5025246;28;20522;-67
2023/04/29 04:49:45;;;;;;;26.48;12.63;;;11.50;99.90;;;;;;5028761;28;20045;-67
2023/04/29 04:52:11;;;;;;;24.92;13.90;;;11.50;99.90;;;;;;5017997;28;20396;-67
2023/04/29 04:54:37;;;;;;;23.42;13.80;;;11.30;99.90;;;;;;5020514;28;20045;-67
2023/04/29 04:57:04;;;;;;;26.55;11.85;;;11.60;99.90;;;;;;5017065;28;20145;-67
2023/04/29 04:59:30;;;;;;;32.38;13.40;;;11.60;99.90;;;;;;5010221;28;20046;-67
2023/04/29 05:01:56;;;;;;;32.35;12.75;;;11.60;99.90;;;;;;5013125;28;20073;-67
2023/04/29 05:04:21;;;;;;;23.58;11.75;;;11.70;99.90;;;;;;5015484;28;20041;-67
2023/04/29 05:06:47;;;;;;;24.42;11.05;;;12.10;99.90;;;;;;5012985;28;20042;-67
2023/04/29 05:09:12;;;;;;;27.58;12.20;;;11.60;99.90;;;;;;5014274;28;20096;-67
2023/04/29 05:11:38;;;;;;;20.80;11.50;;;11.50;99.90;;;;;;5012598;28;20046;-67
2023/04/29 05:14:03;;;;;;;26.83;11.63;;;11.60;99.90;;;;;;5015103;28;20077;-67
2023/04/29 05:16:29;;;;;;;22.95;11.52;;;11.80;99.90;;;;;;5033667;28;20048;-67
2023/04/29 05:18:55;;;;;;;23.80;10.80;;;11.80;99.90;;;;;;5025944;28;20046;-67
2023/04/29 05:21:20;;;;;;;20.77;9.95;;;11.70;99.90;;;;;;5029796;28;20111;-67
2023/04/29 05:23:46;;;;;;;31.95;11.02;;;11.80;99.90;;;;;;5032471;28;20037;-67
2023/04/29 05:26:11;;;;;;;31.20;12.18;;;11.80;99.90;;;;;;5028118;28;20072;-67
2023/04/29 05:28:37;;;;;;;29.42;10.45;;;11.90;99.90;;;;;;5013931;28;20030;-67
2023/04/29 05:31:02;;;;;;;21.55;10.23;;;12.10;99.90;;;;;;5012196;28;20037;-67
2023/04/29 05:33:28;;;;;;;21.27;9.73;;;11.90;99.90;;;;;;5017002;28;20033;-67
2023/04/29 05:35:54;;;;;;;24.48;9.82;;;12.00;99.90;;;;;;5015763;28;20091;-67
2023/04/29 05:38:19;;;;;;;21.63;9.52;;;11.90;99.90;;;;;;5028013;28;20572;-67
2023/04/29 05:40:45;;;;;;;25.77;9.98;;;12.10;99.90;;;;;;5030250;28;20487;-67
2023/04/29 05:43:11;;;;;;;24.08;10.45;;;12.20;99.90;;;;;;5031804;28;20049;-67
2023/04/29 05:45:36;;;;;;;21.73;9.50;;;12.10;99.90;;;;;;5030344;28;20499;-67
2023/04/29 05:48:02;;;;;;;23.40;9.98;;;12.30;99.90;;;;;;5030381;28;20149;-68
2023/04/29 05:50:28;;;;;;;19.95;7.25;;;12.10;99.90;;;;;;5012300;28;20057;-67
2023/04/29 05:52:55;;;;;;;21.67;8.30;;;12.10;99.90;;;;;;4995999;28;20049;-67
2023/04/29 05:55:21;;;;;;;18.88;8.98;;;12.30;99.90;;;;;;5023770;28;20033;-67
2023/04/29 05:57:46;;;;;;;17.80;8.68;;;12.20;99.90;;;;;;5031625;28;20045;-67
2023/04/29 06:00:12;;;;;;;20.90;9.10;;;12.30;99.90;;;;;;5030168;28;20041;-67
2023/04/29 06:02:41;;;;;;;26.30;9.23;;;12.20;99.90;;;;;;5029870;28;20033;-67
2023/04/29 06:05:07;;;;;;;18.35;8.75;;;12.40;99.90;;;;;;5012131;28;20420;-67
2023/04/29 06:07:33;;;;;;;17.85;8.23;;;12.20;99.90;;;;;;5013263;28;20052;-67
2023/04/29 06:09:59;;;;;;;19.58;9.00;;;12.40;99.90;;;;;;5012935;28;20038;-67
2023/04/29 06:12:24;;;;;;;20.33;9.10;;;12.90;99.90;;;;;;5011904;28;20076;-67
2023/04/29 06:14:50;;;;;;;15.10;7.60;;;12.60;99.90;;;;;;5017573;28;20087;-67
2023/04/29 06:17:15;;;;;;;22.27;8.57;;;12.40;99.90;;;;;;5022396;28;20562;-67
2023/04/29 06:19:41;;;;;;;18.05;8.95;;;12.40;99.90;;;;;;5011432;28;20113;-67
2023/04/29 06:22:06;;;;;;;19.13;8.73;;;12.50;99.90;;;;;;5019424;28;20042;-68
2023/04/29 06:24:32;;;;;;;23.95;9.20;;;12.50;99.90;;;;;;5021185;28;20045;-67
2023/04/29 06:26:57;;;;;;;18.92;9.52;;;12.60;99.90;;;;;;5012304;28;20080;-67
2023/04/29 06:29:23;;;;;;;25.35;10.25;;;12.60;99.90;;;;;;5015310;28;20137;-67
2023/04/29 06:31:49;;;;;;;20.40;10.02;;;12.50;99.90;;;;;;5016017;28;20046;-67
2023/04/29 06:34:15;;;;;;;23.60;10.68;;;12.60;99.90;;;;;;5017764;28;20034;-67
2023/04/29 06:36:40;;;;;;;25.08;10.80;;;12.60;99.90;;;;;;5011955;28;20464;-67
2023/04/29 06:39:06;;;;;;;20.73;10.55;;;12.70;99.90;;;;;;5015049;28;20108;-67
2023/04/29 06:41:32;;;;;;;21.25;9.18;;;12.70;99.90;;;;;;5020319;28;20046;-67
2023/04/29 06:43:58;;;;;;;18.23;9.25;;;12.60;99.90;;;;;;5032138;28;20420;-67
2023/04/29 06:46:24;;;;;;;16.23;9.57;;;13.00;99.90;;;;;;5025632;28;20099;-67
2023/04/29 06:48:49;;;;;;;19.63;9.45;;;12.70;99.90;;;;;;5018642;28;20442;-67
2023/04/29 06:51:15;;;;;;;18.38;8.68;;;12.80;99.90;;;;;;5020589;28;20640;-67
2023/04/29 06:53:40;;;;;;;18.92;8.95;;;12.80;99.90;;;;;;5012556;28;20435;-67
2023/04/29 06:56:06;;;;;;;20.17;8.70;;;12.90;99.90;;;;;;5020412;28;20524;-67
2023/04/29 06:58:32;;;;;;;14.63;7.90;;;12.80;99.90;;;;;;5016436;28;20096;-67
2023/04/29 07:00:57;;;;;;;19.65;7.63;;;12.90;99.90;;;;;;5013929;28;20045;-67
2023/04/29 07:03:23;;;;;;;17.33;8.57;;;12.90;99.90;;;;;;5013911;28;20129;-67
2023/04/29 07:05:49;;;;;;;20.83;8.60;;;13.00;99.90;;;;;;5007801;28;20046;-67
2023/04/29 07:08:14;;;;;;;16.80;7.95;;;13.10;99.90;;;;;;5012163;28;20046;-67
2023/04/29 07:10:40;;;;;;;16.90;7.95;;;13.10;99.90;;;;;;5019825;28;20037;-67
2023/04/29 07:13:06;;;;;;;16.00;7.53;;;13.10;99.90;;;;;;5023504;28;20061;-67
2023/04/29 07:15:35;;;;;;;18.90;7.70;;;13.10;99.90;;;;;;5027093;28;20392;-68
2023/04/29 07:18:04;;;;;;;18.85;8.48;;;13.30;99.90;;;;;;5022473;28;20457;-68
2023/04/29 07:20:30;;;;;;;20.55;9.23;;;13.40;99.90;;;;;;5013418;28;20046;-68
2023/04/29 07:22:56;;;;;;;15.90;8.30;;;13.70;99.90;;;;;;5025160;28;20446;-68
2023/04/29 07:25:21;;;;;;;14.02;7.82;;;14.00;99.90;;;;;;5020886;28;20041;-68
2023/04/29 07:27:47;;;;;;;18.38;9.32;;;14.00;99.90;;;;;;5024844;28;20515;-68
2023/04/29 07:30:13;;;;;;;17.25;8.60;;;14.20;99.90;;;;;;5023959;28;20121;-68
2023/04/29 07:32:38;;;;;;;15.68;8.48;;;14.40;99.90;;;;;;5013772;28;20196;-68
2023/04/29 07:35:04;;;;;;;14.90;8.70;;;14.40;99.90;;;;;;5016679;28;20042;-69
2023/04/29 07:37:30;;;;;;;14.85;8.27;;;14.40;99.90;;;;;;5012649;28;20045;-68
2023/04/29 07:39:55;;;;;;;16.60;8.45;;;14.60;59.20;;;;;;5021880;28;20049;-68
2023/04/29 07:42:21;;;;;;;17.65;7.78;;;14.70;99.90;;;;;;5005947;28;20049;-68
2023/04/29 07:44:47;;;;;;;17.77;8.30;;;14.80;99.90;;;;;;5010511;28;20064;-68
2023/04/29 07:47:12;;;;;;;18.08;8.90;;;15.10;1.00;;;;;;5024599;28;20034;-68
2023/04/29 07:49:38;;;;;;;18.85;8.95;;;15.00;99.90;;;;;;5019080;28;20092;-69
2023/04/29 07:52:05;;;;;;;14.05;8.27;;;15.00;99.90;;;;;;5015862;28;20369;-69
2023/04/29 07:54:30;;;;;;;24.30;8.80;;;15.10;1.00;;;;;;5000946;28;20084;-68
2023/04/29 07:57:00;;;;;;;17.00;8.77;;;15.20;99.90;;;;;;5013214;28;20038;-68
2023/04/29 07:59:25;;;;;;;13.57;8.25;;;15.10;99.90;;;;;;5024114;28;20045;-68
2023/04/29 08:01:52;;;;;;;13.80;8.00;;;15.00;1.00;;;;;;5014593;28;20044;-69
2023/04/29 08:04:18;;;;;;;18.65;8.13;;;15.00;1.00;;;;;;5020543;28;20406;-69
2023/04/29 08:06:43;;;;;;;18.85;8.10;;;14.90;99.90;;;;;;5020302;28;20041;-68
2023/04/29 08:09:10;;;;;;;17.85;8.57;;;15.00;99.90;;;;;;5002829;28;20058;-68
2023/04/29 08:11:35;;;;;;;17.75;8.02;;;15.10;99.90;;;;;;5012787;28;20119;-68
2023/04/29 08:14:01;;;;;;;18.67;8.23;;;15.10;99.90;;;;;;5012688;28;20030;-68
2023/04/29 08:16:26;;;;;;;24.65;8.38;;;15.10;99.90;;;;;;5022819;28;20041;-68
2023/04/29 08:18:53;;;;;;;16.42;8.00;;;15.20;99.90;;;;;;5027202;28;20120;-66
2023/04/29 08:21:19;;;;;;;13.75;7.85;;;15.30;99.90;;;;;;5027147;28;20045;-64
2023/04/29 08:23:44;;;;;;;16.00;7.55;;;15.50;59.20;;;;;;5030489;28;20045;-65
2023/04/29 08:26:11;;;;;;;12.82;7.50;;;15.50;1.00;;;;;;5019947;28;20037;-65
2023/04/29 08:28:37;;;;;;;14.77;7.35;;;15.40;1.00;;;;;;4996089;28;20050;-66
2023/04/29 08:31:06;;;;;;;14.50;7.00;;;15.40;1.00;;;;;;5016894;28;20049;-67
2023/04/29 08:33:35;;;;;;;15.70;7.63;;;15.80;1.00;;;;;;5010026;28;20121;-67
2023/04/29 08:36:02;;;;;;;17.02;7.60;;;15.30;1.00;;;;;;5012598;28;20034;-67
2023/04/29 08:38:29;;;;;;;12.23;7.22;;;15.30;99.90;;;;;;5013863;28;20045;-67
2023/04/29 08:40:55;;;;;;;12.75;7.20;;;15.00;99.90;;;;;;5016112;28;20507;-70
2023/04/29 08:43:21;;;;;;;16.27;7.18;;;14.80;99.90;;;;;;5026072;28;20115;-66
2023/04/29 08:45:50;;;;;;;17.55;7.10;;;14.80;99.90;;;;;;5018723;28;20388;-67
2023/04/29 08:48:16;;;;;;;12.70;7.22;;;14.90;99.90;;;;;;4999809;28;20404;-67
2023/04/29 08:50:42;;;;;;;16.98;6.93;;;14.90;1.00;;;;;;5021021;28;20038;-65
2023/04/29 08:53:09;;;;;;;14.95;6.85;;;14.90;1.00;;;;;;5023449;28;20549;-65
2023/04/29 08:55:39;;;;;;;16.02;7.13;;;14.90;1.00;;;;;;5019100;28;20052;-67
2023/04/29 08:58:06;;;;;;;13.52;6.53;;;14.90;1.00;;;;;;5008699;28;20042;-67
2023/04/29 09:00:33;;;;;;;14.02;6.15;;;14.80;1.00;;;;;;5013223;28;20029;-67
2023/04/29 09:03:01;;;;;;;13.10;6.72;;;14.80;1.00;;;;;;5028658;28;20045;-67
2023/04/29 09:05:27;;;;;;;12.27;6.20;;;14.70;1.00;;;;;;5013658;28;20045;-68
2023/04/29 09:07:55;;;;;;;15.70;6.50;;;14.70;1.00;;;;;;5028787;28;20034;-67
2023/04/29 09:10:21;;;;;;;16.52;6.25;;;14.60;1.00;;;;;;5028863;28;20116;-67
2023/04/29 09:12:46;;;;;;;14.98;6.30;;;14.50;1.00;;;;;;4993477;28;20164;-67
2023/04/29 09:15:12;;;;;;;12.55;5.82;;;14.70;1.00;;;;;;5016685;28;20557;-66
2023/04/29 09:17:39;;;;;;;12.57;5.82;;;14.50;1.00;;;;;;5008948;28;20522;-67
2023/04/29 09:20:29;;;;;;;13.10;5.82;;;14.70;1.00;;;;;;5009132;28;20050;-67
2023/04/29 09:23:00;;;;;;;11.55;5.57;;;15.00;1.00;;;;;;4987244;28;20582;-67
2023/04/29 09:25:26;;;;;;;13.10;5.75;;;15.20;1.00;;;;;;5012605;28;20053;-68
2023/04/29 09:27:52;;;;;;;14.85;6.10;;;15.20;1.00;;;;;;5009135;28;20054;-68
2023/04/29 09:30:18;;;;;;;12.35;5.95;;;15.40;99.90;;;;;;5008728;28;20497;-68
2023/04/29 09:32:44;;;;;;;13.40;5.93;;;15.50;99.90;;;;;;5008735;28;20927;-67
2023/04/29 09:35:25;;;;;;;17.50;5.75;;;15.50;99.90;;;;;;5015974;28;20500;-67
2023/04/29 09:37:54;;;;;;;11.07;5.18;;;15.50;99.90;;;;;;5027071;28;20073;-67
2023/04/29 09:40:33;;;;;;;11.85;4.57;;;16.40;99.90;;;;;;5028216;28;20049;-68
2023/04/29 09:43:00;;;;;;;11.38;5.72;;;16.20;99.90;;;;;;5028309;28;20049;-67
2023/04/29 09:45:40;;;;;;;10.32;5.45;;;15.30;99.90;;;;;;5019525;28;20512;-68
2023/04/29 09:48:08;;;;;;;11.57;5.20;;;15.40;99.90;;;;;;5011249;28;20091;-68
2023/04/29 09:50:38;;;;;;;12.18;5.25;;;15.40;38.20;;;;;;5011912;28;20060;-68
2023/04/29 09:53:08;;;;;;;10.40;4.70;;;15.40;1.00;;;;;;5012256;28;20042;-68
2023/04/29 09:55:58;;;;;;;9.43;4.47;;;15.40;1.00;;;;;;5020004;28;20049;-65
2023/04/29 09:58:28;;;;;;;10.80;5.60;;;15.30;1.00;;;;;;5025052;28;20084;-65
2023/04/29 10:00:56;;;;;;;11.20;4.60;;;15.30;1.00;;;;;;5011761;28;20045;-65
2023/04/29 10:03:21;;;;;;;9.80;4.68;;;15.00;1.00;;;;;;5012157;28;20532;-66
2023/04/29 10:05:47;;;;;;;10.40;3.78;;;14.80;99.90;;;;;;5017320;28;20037;-66
2023/04/29 10:08:13;;;;;;;8.85;4.30;;;14.80;99.90;;;;;;4995583;28;20042;-66
2023/04/29 10:10:39;;;;;;;10.35;4.47;;;14.80;99.90;;;;;;5003624;28;20060;-66
2023/04/29 10:13:05;;;;;;;10.48;4.57;;;14.90;99.90;;;;;;5011915;28;20189;-66
2023/04/29 10:15:51;;;;;;;13.82;4.50;;;15.40;99.90;;;;;;5012921;28;20121;-66
2023/04/29 10:18:25;;;;;;;9.35;4.53;;;15.10;99.90;;;;;;5011439;28;20132;-66
2023/04/29 10:20:52;;;;;;;8.45;3.88;;;15.60;99.90;;;;;;5012914;28;20460;-66
2023/04/29 10:23:20;;;;;;;7.72;4.13;;;14.90;99.90;;;;;;5012775;28;20042;-66
2023/04/29 10:25:47;;;;;;;6.43;4.10;;;14.90;99.90;;;;;;5020056;28;20086;-66
2023/04/29 10:28:15;;;;;;;11.10;4.82;;;14.90;99.90;;;;;;5024294;28;20046;-65
2023/04/29 10:30:49;;;;;;;12.20;4.90;;;14.90;99.90;;;;;;5031269;28;20045;-65
2023/04/29 10:33:16;;;;;;;10.88;3.78;;;14.80;99.90;;;;;;5029033;28;20052;-65
2023/04/29 10:35:45;;;;;;;10.30;3.33;;;14.80;99.90;;;;;;5022747;28;20117;-66
2023/04/29 10:38:19;;;;;;;7.28;3.42;;;14.80;99.90;;;;;;5030790;28;20041;-66
2023/04/29 10:40:46;;;;;;;9.23;3.60;;;14.80;99.90;;;;;;5015611;28;20137;-66
2023/04/29 10:43:12;;;;;;;9.73;3.45;;;14.70;99.90;;;;;;5011257;28;20042;-65
2023/04/29 10:45:38;;;;;;;8.82;3.25;;;14.70;99.90;;;;;;5029732;28;20037;-66
2023/04/29 10:48:05;;;;;;;11.85;3.60;;;14.70;99.90;;;;;;5030878;28;20045;-65
2023/04/29 10:50:50;;;;;;;13.40;3.75;;;14.60;99.90;;;;;;5029535;28;20094;-66
2023/04/29 10:53:21;;;;;;;13.80;3.75;;;14.50;99.90;;;;;;5022298;28;20058;-65
2023/04/29 10:55:57;;;;;;;10.38;3.47;;;14.50;99.90;;;;;;5011229;28;20041;-65
2023/04/29 10:58:44;;;;;;;10.20;3.72;;;14.50;1.00;;;;;;5010373;28;20077;-66
2023/04/29 11:01:12;;;;;;;7.18;3.40;;;14.40;1.00;;;;;;5013956;28;20123;-66
2023/04/29 11:03:49;;;;;;;10.35;3.85;;;14.40;1.00;;;;;;5023891;28;20069;-66
2023/04/29 11:06:15;;;;;;;12.52;3.38;;;14.40;1.00;;;;;;5012417;28;20072;-65
2023/04/29 11:08:42;;;;;;;13.35;3.60;;;14.30;1.00;;;;;;5010479;28;20038;-65
2023/04/29 11:11:08;;;;;;;6.18;2.75;;;14.40;1.00;;;;;;5011967;28;20042;-65
2023/04/29 11:13:38;;;;;;;8.70;3.38;;;14.40;1.00;;;;;;5013655;28;20029;-65
2023/04/29 11:16:09;;;;;;;7.28;3.30;;;14.30;99.90;;;;;;5010479;28;20041;-65
2023/04/29 11:18:56;;;;;;;7.80;3.67;;;14.50;1.00;;;;;;5011454;28;20050;-65
2023/04/29 11:21:22;;;;;;;9.43;3.47;;;14.50;1.00;;;;;;5010016;28;20073;-66
2023/04/29 11:23:50;;;;;;;6.70;3.30;;;14.40;1.00;;;;;;5011018;28;20038;-65
2023/04/29 11:26:18;;;;;;;7.82;3.70;;;14.50;1.00;;;;;;5020667;28;20056;-65
2023/04/29 11:28:45;;;;;;;7.15;3.20;;;14.60;1.00;;;;;;5029946;28;20077;-65
2023/04/29 11:31:10;;;;;;;7.05;3.25;;;14.70;1.00;;;;;;5030148;28;20048;-65
2023/04/29 11:33:36;;;;;;;10.48;3.60;;;14.70;1.00;;;;;;5026519;28;20049;-65
2023/04/29 11:36:03;;;;;;;8.18;3.47;;;14.80;99.90;;;;;;5001604;28;20492;-65
2023/04/29 11:38:29;;;;;;;11.43;3.65;;;14.80;99.90;;;;;;5009997;28;20599;-65
2023/04/29 11:40:56;;;;;;;7.63;3.00;;;14.80;99.90;;;;;;5009936;28;20042;-65
2023/04/29 11:43:23;;;;;;;7.25;3.10;;;14.90;99.90;;;;;;5021422;28;20615;-65
2023/04/29 11:45:50;;;;;;;7.57;3.00;;;14.90;99.90;;;;;;5027314;28;20042;-65
2023/04/29 11:48:25;;;;;;;12.23;3.22;;;15.20;99.90;;;;;;5028778;28;20041;-65
2023/04/29 11:50:57;;;;;;;4.35;2.63;;;14.80;99.90;;;;;;5029739;28;20046;-66
2023/04/29 11:53:26;;;;;;;6.13;2.78;;;14.80;99.90;;;;;;5029463;28;20458;-65
2023/04/29 11:55:52;;;;;;;6.10;2.30;;;14.80;99.90;;;;;;5010615;28;20044;-65
2023/04/29 11:58:20;;;;;;;8.27;3.00;;;14.80;99.90;;;;;;5029235;28;20045;-64
2023/04/29 12:00:50;;;;;;;9.43;3.20;;;14.90;99.90;;;;;;5012891;28;20049;-65
2023/04/29 12:03:18;;;;;;;4.50;2.40;;;16.40;99.90;;;;;;5025993;28;20045;-65
2023/04/29 12:05:49;;;;;;;7.57;3.15;;;15.00;99.90;;;;;;5013099;28;20048;-65
2023/04/29 12:08:19;;;;;;;10.07;3.15;;;15.10;99.90;;;;;;5009784;28;20046;-65
2023/04/29 12:10:46;;;;;;;7.32;3.13;;;15.20;99.90;;;;;;5009161;28;20104;-65
2023/04/29 12:13:12;;;;;;;8.30;3.30;;;15.10;99.90;;;;;;5010488;28;20120;-65
2023/04/29 12:15:37;;;;;;;6.38;2.70;;;15.10;99.90;;;;;;5011131;28;20121;-65
2023/04/29 12:18:03;;;;;;;8.65;2.83;;;15.10;95.50;;;;;;5009526;28;20049;-65
2023/04/29 12:20:29;;;;;;;5.65;2.83;;;14.90;28.20;;;;;;4993401;28;20041;-65
2023/04/29 12:22:55;;;;;;;6.65;2.95;;;14.90;12.00;;;;;;5010686;28;20412;-65
2023/04/29 12:25:26;;;;;;;6.30;3.22;;;14.80;20.80;;;;;;5024852;28;20479;-64
2023/04/29 12:27:58;;;;;;;7.63;2.67;;;14.80;35.80;;;;;;5028550;28;20041;-64
2023/04/29 12:30:24;;;;;;;4.38;2.10;;;14.80;1.00;;;;;;5021449;28;20451;-64
2023/04/29 12:32:51;;;;;;;4.82;2.42;;;14.70;1.00;;;;;;5010467;28;20125;-65
2023/04/29 12:35:17;;;;;;;5.47;2.53;;;14.60;1.00;;;;;;5026330;28;20550;-64
2023/04/29 12:37:47;;;;;;;6.63;2.40;;;14.70;1.00;;;;;;5011809;28;20061;-64